Time;durP1;ratioP1;P1;durP2;ratioP2;P2;SDS_P1;SDS_P2;PMS_P1;PMS_P2;Temp;Humidity;BMP_temperature;BMP_pressure;BME280_temperature;BME280_humidity;BME280_pressure;Samples;Min_cycle;Max_cycle;Signal;HPM_P1;HPM_P2
2021/05/25 00:02:25;;;;;;;6.80;3.53;;;10.00;99.90;;;;;;5045923;28;20675;-50
2021/05/25 00:04:52;;;;;;;2.97;2.67;;;10.10;99.90;;;;;;5047893;28;21571;-50
2021/05/25 00:07:19;;;;;;;4.83;2.53;;;10.10;99.90;;;;;;5048328;28;20706;-51
2021/05/25 00:09:46;;;;;;;3.03;2.37;;;10.10;99.90;;;;;;5048468;28;20789;-51
2021/05/25 00:12:13;;;;;;;4.27;2.73;;;10.10;99.90;;;;;;5047075;28;20701;-50
2021/05/25 00:14:41;;;;;;;4.07;2.77;;;10.00;99.90;;;;;;5049395;28;20254;-50
2021/05/25 00:17:08;;;;;;;4.03;2.60;;;10.00;99.90;;;;;;5048885;28;20203;-50
2021/05/25 00:19:35;;;;;;;3.47;2.50;;;10.00;99.90;;;;;;5046545;28;20727;-50
2021/05/25 00:22:02;;;;;;;3.33;2.40;;;9.80;99.90;;;;;;5048667;28;20196;-51
2021/05/25 00:24:28;;;;;;;3.20;2.20;;;10.10;99.90;;;;;;5049002;28;20234;-51
2021/05/25 00:26:55;;;;;;;3.60;2.20;;;10.10;99.90;;;;;;5049197;28;20245;-51
2021/05/25 00:29:24;;;;;;;3.57;2.27;;;10.00;99.90;;;;;;5049594;28;20226;-51
2021/05/25 00:31:51;;;;;;;3.37;2.30;;;9.80;99.90;;;;;;5045133;28;20215;-50
2021/05/25 00:34:18;;;;;;;2.87;2.30;;;9.70;99.90;;;;;;5045134;28;20305;-50
2021/05/25 00:36:44;;;;;;;4.07;2.63;;;9.60;99.90;;;;;;5048604;28;20290;-50
2021/05/25 00:39:11;;;;;;;2.90;2.27;;;9.70;99.90;;;;;;5045247;28;20234;-51
2021/05/25 00:41:38;;;;;;;3.17;2.00;;;9.80;99.90;;;;;;5047050;28;20277;-50
2021/05/25 00:44:09;;;;;;;4.17;2.00;;;9.60;99.90;;;;;;5043699;28;20222;-50
2021/05/25 00:46:37;;;;;;;2.53;1.90;;;9.70;99.90;;;;;;5050345;28;20226;-51
2021/05/25 00:49:05;;;;;;;3.07;2.10;;;9.60;99.90;;;;;;5049921;28;20531;-51
2021/05/25 00:51:33;;;;;;;7.70;2.23;;;9.70;99.90;;;;;;5045746;28;20674;-51
2021/05/25 00:54:00;;;;;;;2.70;2.10;;;9.60;99.90;;;;;;5040659;28;20273;-50
2021/05/25 00:56:28;;;;;;;2.83;1.80;;;9.50;99.90;;;;;;5042509;28;20238;-50
2021/05/25 00:58:55;;;;;;;4.73;2.13;;;9.40;99.90;;;;;;5043472;28;20211;-50
2021/05/25 01:01:22;;;;;;;3.57;2.00;;;9.30;99.90;;;;;;5043993;28;20301;-50
2021/05/25 01:03:49;;;;;;;2.10;1.90;;;9.10;99.90;;;;;;5041511;28;20833;-50
2021/05/25 01:06:15;;;;;;;2.10;1.90;;;9.10;99.90;;;;;;5044418;28;20209;-50
2021/05/25 01:08:42;;;;;;;4.73;1.70;;;9.30;99.90;;;;;;5039351;28;20234;-50
2021/05/25 01:11:14;;;;;;;6.10;2.30;;;9.20;99.90;;;;;;5040094;28;20247;-50
2021/05/25 01:13:47;;;;;;;3.53;1.90;;;9.30;99.90;;;;;;5041014;28;20207;-50
2021/05/25 01:16:16;;;;;;;2.80;1.53;;;9.20;99.90;;;;;;5044203;28;20196;-50
2021/05/25 01:18:43;;;;;;;3.87;1.90;;;9.30;99.90;;;;;;5044582;28;20721;-50
2021/05/25 01:21:12;;;;;;;2.97;2.03;;;8.90;99.90;;;;;;5037253;28;20694;-50
2021/05/25 01:23:40;;;;;;;3.30;2.13;;;9.00;99.90;;;;;;5043143;28;20229;-49
2021/05/25 01:26:08;;;;;;;2.60;1.70;;;8.90;99.90;;;;;;5041103;28;20245;-49
2021/05/25 01:28:36;;;;;;;1.83;1.50;;;9.10;99.90;;;;;;5042969;28;20750;-49
2021/05/25 01:31:05;;;;;;;3.13;1.90;;;9.10;99.90;;;;;;5044602;28;20215;-49
2021/05/25 01:33:36;;;;;;;5.53;1.80;;;9.10;99.90;;;;;;5040380;28;20880;-50
2021/05/25 01:36:05;;;;;;;3.23;1.73;;;9.00;99.90;;;;;;5042303;28;20205;-50
2021/05/25 01:38:32;;;;;;;3.10;1.60;;;8.90;99.90;;;;;;5038780;28;20558;-50
2021/05/25 01:41:01;;;;;;;3.57;1.47;;;9.00;99.90;;;;;;5039683;28;21005;-50
2021/05/25 01:43:27;;;;;;;4.53;1.90;;;8.80;99.90;;;;;;5044194;28;20207;-50
2021/05/25 01:45:54;;;;;;;3.27;1.80;;;8.90;99.90;;;;;;5041115;28;20305;-51
2021/05/25 01:48:21;;;;;;;2.07;1.30;;;8.80;99.90;;;;;;5043372;28;20309;-51
2021/05/25 01:50:48;;;;;;;4.07;1.83;;;8.70;99.90;;;;;;5041198;28;20321;-50
2021/05/25 01:53:21;;;;;;;4.50;1.90;;;8.70;99.90;;;;;;5037415;28;20671;-51
2021/05/25 01:55:53;;;;;;;4.30;1.60;;;8.60;99.90;;;;;;5042018;28;20211;-50
2021/05/25 01:58:27;;;;;;;2.13;1.50;;;8.60;99.90;;;;;;5043112;28;20614;-52
2021/05/25 02:01:02;;;;;;;2.30;1.60;;;8.70;99.90;;;;;;5042062;28;20203;-51
2021/05/25 02:03:29;;;;;;;5.53;1.77;;;8.70;99.90;;;;;;5043367;28;21206;-51
2021/05/25 02:05:57;;;;;;;2.87;1.80;;;8.50;99.90;;;;;;5041282;28;20206;-50
2021/05/25 02:08:25;;;;;;;3.70;2.23;;;8.60;99.90;;;;;;5036750;28;20681;-51
2021/05/25 02:10:54;;;;;;;4.80;2.33;;;8.50;99.90;;;;;;5043375;28;20624;-51
2021/05/25 02:13:23;;;;;;;2.27;1.57;;;8.60;99.90;;;;;;5046246;28;20212;-51
2021/05/25 02:15:55;;;;;;;3.73;1.77;;;8.50;99.90;;;;;;5043560;28;21890;-51
2021/05/25 02:18:31;;;;;;;2.80;1.93;;;8.60;99.90;;;;;;5037667;28;20723;-50
2021/05/25 02:21:04;;;;;;;4.73;1.93;;;8.60;99.90;;;;;;5039322;28;20252;-51
2021/05/25 02:23:32;;;;;;;2.30;1.90;;;8.80;99.90;;;;;;5039794;28;20257;-52
2021/05/25 02:25:59;;;;;;;4.13;1.93;;;8.60;99.90;;;;;;5043158;28;20201;-50
2021/05/25 02:28:26;;;;;;;3.80;1.70;;;8.50;99.90;;;;;;5044418;28;20236;-50
2021/05/25 02:30:54;;;;;;;3.53;2.13;;;8.40;99.90;;;;;;5041415;28;20623;-50
2021/05/25 02:33:22;;;;;;;2.70;1.80;;;8.50;99.90;;;;;;5043071;28;20250;-51
2021/05/25 02:35:51;;;;;;;5.67;2.10;;;8.50;99.90;;;;;;5041975;28;20265;-50
2021/05/25 02:38:17;;;;;;;3.37;2.13;;;8.70;99.90;;;;;;5036241;28;20608;-50
2021/05/25 02:40:46;;;;;;;2.23;1.80;;;8.80;99.90;;;;;;5039004;28;20253;-51
2021/05/25 02:43:15;;;;;;;3.07;2.00;;;8.60;99.90;;;;;;5037805;28;20295;-51
2021/05/25 02:45:43;;;;;;;4.07;2.10;;;8.70;99.90;;;;;;5041184;28;20246;-52
2021/05/25 02:48:10;;;;;;;4.20;2.37;;;8.60;99.90;;;;;;5038337;28;20239;-50
2021/05/25 02:50:37;;;;;;;4.17;2.37;;;8.40;99.90;;;;;;5038704;28;20234;-51
2021/05/25 02:53:04;;;;;;;4.30;1.87;;;8.40;99.90;;;;;;5035576;28;20636;-51
2021/05/25 02:55:33;;;;;;;2.47;1.73;;;8.50;99.90;;;;;;5041779;28;20653;-51
2021/05/25 02:58:01;;;;;;;3.27;1.90;;;8.50;99.90;;;;;;5039759;28;20243;-51
2021/05/25 03:00:31;;;;;;;3.77;2.10;;;8.60;99.90;;;;;;5039830;28;20234;-51
2021/05/25 03:02:58;;;;;;;6.37;2.20;;;8.60;99.90;;;;;;5035121;28;20218;-50
2021/05/25 03:05:25;;;;;;;7.00;2.50;;;8.60;99.90;;;;;;5044736;28;20305;-51
2021/05/25 03:07:54;;;;;;;3.97;1.97;;;8.50;99.90;;;;;;5040374;28;20206;-51
2021/05/25 03:10:24;;;;;;;3.13;1.83;;;8.50;99.90;;;;;;5043799;28;20279;-51
2021/05/25 03:12:52;;;;;;;3.37;1.87;;;8.50;99.90;;;;;;5041590;28;20296;-51
2021/05/25 03:15:25;;;;;;;2.50;2.00;;;8.40;99.90;;;;;;5040383;28;20248;-51
2021/05/25 03:17:52;;;;;;;6.47;2.37;;;8.60;99.90;;;;;;5036927;28;20386;-51
2021/05/25 03:20:19;;;;;;;4.30;2.43;;;8.40;99.90;;;;;;5038651;28;20238;-51
2021/05/25 03:22:47;;;;;;;4.33;2.17;;;8.60;99.90;;;;;;5036453;28;20330;-51
2021/05/25 03:25:15;;;;;;;4.03;2.20;;;8.30;99.90;;;;;;5040551;28;20374;-50
2021/05/25 03:27:43;;;;;;;3.33;2.27;;;8.30;99.90;;;;;;5042807;28;20319;-51
2021/05/25 03:30:13;;;;;;;4.23;2.23;;;8.30;99.90;;;;;;5042998;28;20269;-50
2021/05/25 03:32:41;;;;;;;4.27;2.40;;;8.40;99.90;;;;;;5046201;28;20313;-50
2021/05/25 03:35:09;;;;;;;3.33;2.33;;;8.60;99.90;;;;;;5039281;28;21438;-50
2021/05/25 03:37:37;;;;;;;3.00;2.10;;;8.60;99.90;;;;;;5044372;28;20256;-50
2021/05/25 03:40:07;;;;;;;3.67;2.03;;;8.40;99.90;;;;;;5042361;28;20649;-50
2021/05/25 03:42:34;;;;;;;3.23;2.10;;;8.40;99.90;;;;;;5043141;28;20717;-50
2021/05/25 03:45:02;;;;;;;4.33;2.87;;;8.60;99.90;;;;;;5041352;28;20258;-50
2021/05/25 03:47:29;;;;;;;6.33;2.90;;;8.60;99.90;;;;;;5044639;28;20696;-51
2021/05/25 03:50:06;;;;;;;2.97;2.07;;;8.40;99.90;;;;;;5041362;28;20333;-50
2021/05/25 03:52:38;;;;;;;9.33;2.33;;;8.50;99.90;;;;;;5039792;28;21378;-50
2021/05/25 04:00:46;;;;;;;5.40;2.43;;;8.70;99.90;;;;;;5043341;28;20434;-50
2021/05/25 04:03:13;;;;;;;5.53;2.23;;;8.60;99.90;;;;;;5042688;28;20606;-50
2021/05/25 04:05:40;;;;;;;3.43;2.17;;;8.70;99.90;;;;;;5043220;28;20313;-50
2021/05/25 04:08:08;;;;;;;4.10;2.50;;;8.80;99.90;;;;;;5044928;28;21578;-51
2021/05/25 04:10:36;;;;;;;2.73;2.23;;;8.80;99.90;;;;;;5040799;28;20732;-50
2021/05/25 04:13:03;;;;;;;4.63;2.00;;;8.80;99.90;;;;;;5044793;28;20694;-50
2021/05/25 04:15:30;;;;;;;4.40;2.20;;;8.90;99.90;;;;;;5041458;28;20207;-50
2021/05/25 04:17:57;;;;;;;2.77;2.40;;;8.70;99.90;;;;;;5040832;28;20211;-49
2021/05/25 04:20:24;;;;;;;3.47;2.50;;;8.50;99.90;;;;;;5041555;28;20230;-50
2021/05/25 04:22:56;;;;;;;5.47;2.13;;;8.70;99.90;;;;;;5044015;28;20203;-50
2021/05/25 04:25:23;;;;;;;9.43;2.40;;;8.60;99.90;;;;;;5042179;28;20216;-50
2021/05/25 04:27:50;;;;;;;3.63;2.30;;;8.60;99.90;;;;;;5045848;28;20227;-50
2021/05/25 04:30:17;;;;;;;5.90;2.10;;;8.60;99.90;;;;;;5043053;28;20265;-50
2021/05/25 04:32:44;;;;;;;3.67;2.40;;;8.70;99.90;;;;;;5040510;28;20217;-50
2021/05/25 04:35:11;;;;;;;5.83;2.10;;;8.80;99.90;;;;;;5042243;28;20290;-50
2021/05/25 04:37:38;;;;;;;4.50;2.13;;;8.80;99.90;;;;;;5041221;28;20700;-50
2021/05/25 04:40:05;;;;;;;3.90;2.53;;;8.70;99.90;;;;;;5044055;28;20296;-49
2021/05/25 04:42:35;;;;;;;3.30;2.43;;;8.90;99.90;;;;;;5043323;28;20560;-50
2021/05/25 04:45:05;;;;;;;4.77;2.43;;;8.90;99.90;;;;;;5044037;28;20675;-50
2021/05/25 04:47:32;;;;;;;5.67;2.80;;;8.90;99.90;;;;;;5042348;28;20231;-53
2021/05/25 04:49:58;;;;;;;4.70;2.50;;;8.90;99.90;;;;;;5040687;28;20265;-50
2021/05/25 04:52:25;;;;;;;4.47;2.40;;;8.90;99.90;;;;;;5040050;28;20229;-50
2021/05/25 04:54:55;;;;;;;3.33;2.23;;;8.90;99.90;;;;;;5042895;28;20205;-51
2021/05/25 04:57:23;;;;;;;4.67;2.60;;;9.10;99.90;;;;;;5041813;28;20281;-51
2021/05/25 04:59:50;;;;;;;4.10;2.63;;;9.00;99.90;;;;;;5045029;28;20708;-51
2021/05/25 05:02:16;;;;;;;4.07;2.60;;;9.00;99.90;;;;;;5038520;28;20303;-50
2021/05/25 05:04:43;;;;;;;3.00;2.47;;;9.10;99.90;;;;;;5040087;28;20293;-51
2021/05/25 05:07:11;;;;;;;3.90;2.87;;;9.30;99.90;;;;;;5042527;28;20305;-51
2021/05/25 05:09:38;;;;;;;4.93;3.10;;;9.40;99.90;;;;;;5044488;28;20340;-51
2021/05/25 05:12:06;;;;;;;3.37;3.07;;;9.30;99.90;;;;;;5040919;28;20307;-50
2021/05/25 05:14:37;;;;;;;3.67;3.00;;;9.20;99.90;;;;;;5041919;28;20215;-50
2021/05/25 05:17:04;;;;;;;4.17;3.03;;;9.20;99.90;;;;;;5041345;28;20211;-50
2021/05/25 05:19:32;;;;;;;4.43;3.50;;;9.30;99.90;;;;;;5041909;28;20255;-51
2021/05/25 05:21:58;;;;;;;4.20;3.60;;;9.20;99.90;;;;;;5042270;28;20207;-51
2021/05/25 05:24:25;;;;;;;5.20;3.53;;;9.40;99.90;;;;;;5044630;28;20305;-51
2021/05/25 05:26:52;;;;;;;5.97;4.33;;;9.40;99.90;;;;;;5046169;28;20223;-52
2021/05/25 05:29:19;;;;;;;7.80;4.30;;;9.40;99.90;;;;;;5042082;28;20357;-51
2021/05/25 05:31:46;;;;;;;7.90;5.07;;;9.50;99.90;;;;;;5042717;28;20213;-51
2021/05/25 05:34:13;;;;;;;4.87;4.30;;;9.40;99.90;;;;;;5037865;28;20264;-50
2021/05/25 05:36:40;;;;;;;6.60;4.60;;;9.30;99.90;;;;;;5038164;28;20212;-51
2021/05/25 05:39:07;;;;;;;6.60;4.80;;;9.30;99.90;;;;;;5043232;28;20234;-51
2021/05/25 05:41:34;;;;;;;6.87;4.60;;;9.30;99.90;;;;;;5047421;28;20227;-51
2021/05/25 05:44:01;;;;;;;8.87;5.40;;;9.20;99.90;;;;;;5048932;28;20217;-51
2021/05/25 05:46:28;;;;;;;9.07;6.50;;;9.20;99.90;;;;;;5046747;28;20207;-51
2021/05/25 05:48:55;;;;;;;7.50;5.00;;;9.20;99.90;;;;;;5046011;28;20251;-51
2021/05/25 05:51:22;;;;;;;8.53;6.43;;;9.20;99.90;;;;;;5047762;28;20351;-50
2021/05/25 05:53:50;;;;;;;7.37;5.93;;;9.20;99.90;;;;;;5044383;28;20200;-51
2021/05/25 05:56:18;;;;;;;8.13;5.93;;;9.40;99.90;;;;;;5044546;28;20203;-51
2021/05/25 05:58:46;;;;;;;8.00;6.13;;;9.60;99.90;;;;;;5044656;28;20665;-51
2021/05/25 06:01:13;;;;;;;7.40;5.60;;;9.40;99.90;;;;;;5040472;28;20218;-50
2021/05/25 06:03:40;;;;;;;5.50;4.77;;;9.50;99.90;;;;;;5043390;28;20211;-51
2021/05/25 06:06:07;;;;;;;12.67;6.17;;;9.50;99.90;;;;;;5044639;28;20194;-50
2021/05/25 06:08:34;;;;;;;7.70;5.33;;;9.70;99.90;;;;;;5041890;28;20198;-50
2021/05/25 06:11:01;;;;;;;5.20;4.70;;;9.80;99.90;;;;;;5044462;28;20620;-50
2021/05/25 06:13:28;;;;;;;6.57;5.23;;;9.70;99.90;;;;;;5045852;28;20273;-50
2021/05/25 06:16:02;;;;;;;6.90;4.17;;;9.80;99.90;;;;;;5048480;28;20233;-50
2021/05/25 06:18:30;;;;;;;5.53;4.83;;;9.80;99.90;;;;;;5046169;28;20207;-50
2021/05/25 06:20:58;;;;;;;6.97;4.57;;;9.80;99.90;;;;;;5044365;28;20262;-51
2021/05/25 06:23:25;;;;;;;4.00;3.60;;;10.00;99.90;;;;;;5041731;28;20235;-49
2021/05/25 06:25:52;;;;;;;4.27;3.77;;;10.00;99.90;;;;;;5046161;28;20239;-51
2021/05/25 06:28:18;;;;;;;4.43;3.87;;;10.00;99.90;;;;;;5044452;28;20654;-49
2021/05/25 06:30:45;;;;;;;6.00;3.70;;;10.10;99.90;;;;;;5043427;28;20210;-49
2021/05/25 06:33:12;;;;;;;7.97;3.73;;;10.10;99.90;;;;;;5046746;28;20218;-50
2021/05/25 06:35:39;;;;;;;4.23;3.67;;;10.30;99.90;;;;;;5048958;28;20672;-50
2021/05/25 06:38:06;;;;;;;4.80;4.40;;;10.50;99.90;;;;;;5044245;28;20701;-50
2021/05/25 06:40:33;;;;;;;4.47;3.97;;;10.70;99.90;;;;;;5048006;28;20230;-51
2021/05/25 06:43:00;;;;;;;5.47;4.80;;;10.40;99.90;;;;;;5046603;28;20206;-49
2021/05/25 06:45:27;;;;;;;6.27;4.70;;;10.40;99.90;;;;;;5048469;28;20345;-50
2021/05/25 06:47:54;;;;;;;5.13;4.37;;;10.40;99.90;;;;;;5050092;28;20223;-50
2021/05/25 06:50:21;;;;;;;6.07;4.33;;;10.50;99.90;;;;;;5048688;28;20297;-50
2021/05/25 06:52:48;;;;;;;4.20;3.73;;;10.70;99.90;;;;;;5042030;28;20211;-50
2021/05/25 06:55:16;;;;;;;5.77;4.30;;;10.90;99.90;;;;;;5046086;28;20216;-50
2021/05/25 06:57:43;;;;;;;8.03;4.77;;;10.70;99.90;;;;;;5045800;28;20203;-52
2021/05/25 07:00:12;;;;;;;5.27;4.40;;;10.90;99.90;;;;;;5045020;28;20590;-50
2021/05/25 07:02:40;;;;;;;5.50;3.27;;;11.00;99.90;;;;;;5047788;28;20225;-50
2021/05/25 07:05:09;;;;;;;4.43;3.73;;;11.10;99.90;;;;;;5048233;28;20327;-50
2021/05/25 07:07:36;;;;;;;4.10;2.90;;;11.20;99.90;;;;;;5048175;28;20252;-51
2021/05/25 07:10:04;;;;;;;3.73;3.00;;;11.30;99.90;;;;;;5046408;28;20672;-51
2021/05/25 07:12:31;;;;;;;3.67;2.37;;;11.30;99.90;;;;;;5048154;28;20525;-50
2021/05/25 07:14:59;;;;;;;2.93;2.43;;;11.20;99.90;;;;;;5053984;28;20218;-50
2021/05/25 07:17:26;;;;;;;3.23;2.27;;;11.30;99.90;;;;;;5054048;28;20650;-50
2021/05/25 07:19:53;;;;;;;4.50;2.30;;;11.10;99.90;;;;;;5053652;28;20245;-50
2021/05/25 07:22:21;;;;;;;3.37;2.37;;;11.10;99.90;;;;;;5049096;28;20352;-50
2021/05/25 07:24:49;;;;;;;4.67;2.27;;;10.90;99.90;;;;;;5049652;28;20281;-50
2021/05/25 07:27:17;;;;;;;3.40;2.50;;;10.80;99.90;;;;;;5043248;28;20312;-50
2021/05/25 07:29:44;;;;;;;7.10;4.43;;;10.80;99.90;;;;;;5047066;28;20203;-50
2021/05/25 07:32:11;;;;;;;4.53;3.03;;;11.00;99.90;;;;;;5050936;28;20299;-50
2021/05/25 07:34:37;;;;;;;8.97;3.87;;;11.00;99.90;;;;;;5054324;28;20236;-50
2021/05/25 07:37:04;;;;;;;4.10;3.63;;;11.20;99.90;;;;;;5053905;28;20192;-50
2021/05/25 07:39:31;;;;;;;4.73;2.90;;;11.10;99.90;;;;;;5047834;28;20247;-50
2021/05/25 07:41:58;;;;;;;7.17;3.20;;;11.10;99.90;;;;;;5032173;28;20195;-50
2021/05/25 07:44:25;;;;;;;4.60;3.83;;;11.30;99.90;;;;;;5048579;28;20223;-50
2021/05/25 07:46:53;;;;;;;3.83;3.00;;;11.50;99.90;;;;;;5048505;28;20322;-50
2021/05/25 07:49:20;;;;;;;6.97;3.10;;;11.40;99.90;;;;;;5053644;28;20667;-50
2021/05/25 07:51:50;;;;;;;4.80;3.13;;;11.50;99.90;;;;;;5051248;28;20298;-49
2021/05/25 07:54:17;;;;;;;3.13;2.83;;;11.50;99.90;;;;;;5051852;28;20230;-49
2021/05/25 07:56:44;;;;;;;4.10;2.80;;;11.40;99.90;;;;;;5049534;28;20680;-50
2021/05/25 07:59:11;;;;;;;7.03;3.27;;;11.40;99.90;;;;;;5051333;28;20810;-51
2021/05/25 08:01:38;;;;;;;6.57;2.90;;;11.20;99.90;;;;;;5047529;28;20195;-50
2021/05/25 08:04:05;;;;;;;3.97;2.83;;;11.30;99.90;;;;;;5053112;28;20210;-49
2021/05/25 08:06:35;;;;;;;8.00;2.80;;;11.40;99.90;;;;;;5052416;28;20593;-50
2021/05/25 08:09:06;;;;;;;5.13;3.33;;;11.40;99.90;;;;;;5052700;28;20563;-50
2021/05/25 08:11:34;;;;;;;3.30;2.90;;;11.70;99.90;;;;;;5051395;28;20244;-49
2021/05/25 08:14:04;;;;;;;3.33;2.10;;;11.50;99.90;;;;;;5046987;28;20260;-49
2021/05/25 08:16:34;;;;;;;5.93;2.50;;;11.10;99.90;;;;;;5051952;28;20270;-50
2021/05/25 08:21:37;;;;;;;3.37;2.40;;;11.00;99.90;;;;;;5053572;28;20795;-50
2021/05/25 08:24:08;;;;;;;5.17;2.40;;;10.90;99.90;;;;;;5049632;28;20257;-49
2021/05/25 08:26:36;;;;;;;7.70;2.70;;;10.90;99.90;;;;;;5056618;28;20270;-49
2021/05/25 08:29:04;;;;;;;3.33;2.37;;;11.00;99.90;;;;;;5052218;28;20226;-49
2021/05/25 08:31:31;;;;;;;4.90;2.20;;;10.90;99.90;;;;;;5052377;28;20332;-49
2021/05/25 08:34:01;;;;;;;4.43;1.90;;;10.70;99.90;;;;;;5049146;28;20318;-51
2021/05/25 08:36:30;;;;;;;5.20;2.90;;;10.60;99.90;;;;;;5050170;28;20234;-50
2021/05/25 08:38:58;;;;;;;3.10;2.07;;;10.60;99.90;;;;;;5049855;28;20233;-50
2021/05/25 08:41:26;;;;;;;3.47;2.20;;;10.70;99.90;;;;;;5050791;28;20212;-50
2021/05/25 08:43:53;;;;;;;5.80;2.43;;;10.90;99.90;;;;;;5051081;28;20238;-51
2021/05/25 08:46:22;;;;;;;5.20;2.43;;;11.00;99.90;;;;;;5051676;28;20912;-50
2021/05/25 08:48:49;;;;;;;6.20;2.57;;;11.20;99.90;;;;;;5049312;28;20230;-54
2021/05/25 08:51:16;;;;;;;5.93;2.30;;;11.20;99.90;;;;;;5051622;28;20666;-50
2021/05/25 08:53:43;;;;;;;4.47;2.07;;;11.10;99.90;;;;;;5048255;28;20581;-50
2021/05/25 08:56:10;;;;;;;4.43;2.10;;;11.30;99.90;;;;;;5054313;28;20207;-50
2021/05/25 08:58:37;;;;;;;5.70;2.70;;;11.40;99.90;;;;;;5051850;28;20247;-51
2021/05/25 09:01:04;;;;;;;3.83;2.63;;;11.40;99.90;;;;;;5050927;28;20359;-50
2021/05/25 09:03:31;;;;;;;7.43;2.57;;;11.50;99.90;;;;;;5051912;28;20228;-50
2021/05/25 09:06:07;;;;;;;4.90;2.57;;;11.50;99.90;;;;;;5053649;28;20211;-51
2021/05/25 09:08:35;;;;;;;6.83;2.23;;;11.50;99.90;;;;;;5049574;28;20603;-51
2021/05/25 09:11:10;;;;;;;6.27;2.27;;;11.50;99.90;;;;;;5053522;28;20488;-50
2021/05/25 09:13:37;;;;;;;5.40;2.10;;;11.50;99.90;;;;;;5051355;28;20226;-50
2021/05/25 09:16:08;;;;;;;3.30;1.77;;;11.60;99.90;;;;;;5051847;28;20235;-50
2021/05/25 09:18:45;;;;;;;3.50;2.30;;;11.70;99.90;;;;;;5044836;28;20530;-50
2021/05/25 09:21:35;;;;;;;4.87;2.10;;;12.00;99.90;;;;;;5047933;28;20252;-50
2021/05/25 09:24:02;;;;;;;6.27;2.40;;;12.30;99.90;;;;;;5049458;28;20297;-51
2021/05/25 09:26:34;;;;;;;4.67;2.47;;;12.20;99.90;;;;;;5047677;28;20272;-51
2021/05/25 09:29:03;;;;;;;5.27;2.60;;;12.20;99.90;;;;;;5050144;28;20401;-50
2021/05/25 09:31:41;;;;;;;5.23;2.77;;;12.60;99.90;;;;;;5048916;28;20229;-50
2021/05/25 09:34:11;;;;;;;7.37;2.23;;;12.60;99.90;;;;;;5051388;28;20505;-50
2021/05/25 09:37:03;;;;;;;5.73;2.73;;;12.80;99.90;;;;;;5049254;28;20196;-51
2021/05/25 09:39:42;;;;;;;5.07;2.77;;;12.80;99.90;;;;;;5048751;28;20245;-50
2021/05/25 09:42:12;;;;;;;4.73;2.53;;;12.90;99.90;;;;;;5047941;28;20623;-51
2021/05/25 09:45:15;;;;;;;6.03;3.00;;;12.80;99.90;;;;;;5052147;28;20204;-50
2021/05/25 09:47:53;;;;;;;8.00;2.60;;;12.70;99.90;;;;;;5044755;28;20631;-52
2021/05/25 09:50:25;;;;;;;5.57;3.00;;;12.70;99.90;;;;;;5044105;28;21033;-50
2021/05/25 09:53:04;;;;;;;3.37;2.10;;;12.60;99.90;;;;;;5042957;28;20311;-53
2021/05/25 09:55:45;;;;;;;5.17;2.33;;;12.50;99.90;;;;;;5050632;28;20549;-50
2021/05/25 09:58:13;;;;;;;4.73;2.83;;;12.60;99.90;;;;;;5052039;28;20670;-49
2021/05/25 10:00:40;;;;;;;5.17;3.10;;;12.70;99.90;;;;;;5047891;28;20203;-50
2021/05/25 10:03:14;;;;;;;5.17;2.57;;;12.70;99.90;;;;;;5045470;28;20300;-50
2021/05/25 10:05:47;;;;;;;4.73;2.80;;;12.70;99.90;;;;;;5049390;28;20206;-51
2021/05/25 10:08:14;;;;;;;5.70;2.77;;;12.90;99.90;;;;;;5048779;28;20540;-51
2021/05/25 10:10:42;;;;;;;8.23;3.30;;;13.10;99.90;;;;;;5045217;28;20261;-52
2021/05/25 10:13:11;;;;;;;5.43;2.53;;;13.30;99.90;;;;;;5050142;28;20215;-51
2021/05/25 10:15:38;;;;;;;6.10;2.63;;;13.80;99.90;;;;;;5048486;28;20568;-51
2021/05/25 10:20:53;;;;;;;6.20;2.23;;;14.40;99.90;;;;;;5048498;28;20232;-51
2021/05/25 10:23:20;;;;;;;6.50;2.50;;;14.70;99.90;;;;;;5041105;28;20726;-51
2021/05/25 10:25:49;;;;;;;8.00;1.40;;;14.30;99.90;;;;;;5045770;28;20249;-51
2021/05/25 10:28:16;;;;;;;2.87;1.60;;;14.20;99.90;;;;;;5048676;28;20243;-50
2021/05/25 10:30:49;;;;;;;2.77;1.53;;;13.90;99.90;;;;;;5047019;28;20593;-50
2021/05/25 10:33:27;;;;;;;2.13;1.20;;;13.70;99.90;;;;;;5045169;28;20271;-62
2021/05/25 10:35:56;;;;;;;4.17;1.20;;;13.60;99.90;;;;;;5048517;28;20295;-59
2021/05/25 10:38:30;;;;;;;7.67;1.70;;;13.60;99.90;;;;;;5044856;28;20332;-59
2021/05/25 10:41:05;;;;;;;7.70;1.50;;;14.00;99.90;;;;;;5050897;28;20382;-52
2021/05/25 10:43:38;;;;;;;4.43;1.40;;;14.40;99.90;;;;;;5050373;28;20215;-62
2021/05/25 10:46:09;;;;;;;4.10;1.60;;;14.60;99.90;;;;;;5052684;28;20209;-52
2021/05/25 10:48:50;;;;;;;4.77;1.37;;;14.60;99.90;;;;;;5048264;28;20214;-52
2021/05/25 10:51:17;;;;;;;1.93;0.80;;;15.20;99.90;;;;;;5047597;28;20293;-51
2021/05/25 10:53:44;;;;;;;2.60;0.60;;;15.30;99.90;;;;;;5045107;28;20303;-52
2021/05/25 10:56:25;;;;;;;1.53;0.60;;;14.60;99.90;;;;;;5046044;28;20262;-53
2021/05/25 10:59:05;;;;;;;2.87;0.90;;;13.70;99.90;;;;;;5044571;28;20255;-51
2021/05/25 11:01:35;;;;;;;1.53;0.60;;;13.20;99.90;;;;;;5052817;28;20555;-53
2021/05/25 11:04:11;;;;;;;3.60;0.90;;;13.00;99.90;;;;;;5049061;28;20215;-53
2021/05/25 11:06:43;;;;;;;1.67;0.67;;;12.90;99.90;;;;;;5052338;28;20289;-53
2021/05/25 11:09:28;;;;;;;4.73;1.20;;;13.40;99.90;;;;;;5051842;28;20535;-53
2021/05/25 11:12:15;;;;;;;2.60;1.03;;;13.50;99.90;;;;;;5054265;28;22457;-50
2021/05/25 11:15:17;;;;;;;3.53;0.90;;;14.10;99.90;;;;;;5053885;28;20216;-50
2021/05/25 11:17:47;;;;;;;5.00;1.10;;;14.60;99.90;;;;;;5054808;28;20230;-51
2021/05/25 11:20:39;;;;;;;5.20;1.37;;;14.90;99.90;;;;;;5052299;28;20283;-52
2021/05/25 11:23:43;;;;;;;2.20;1.00;;;15.00;99.90;;;;;;5046733;28;20365;-52
2021/05/25 11:26:48;;;;;;;6.07;1.00;;;14.90;99.90;;;;;;5052696;28;20208;-51
2021/05/25 11:29:15;;;;;;;1.20;0.87;;;14.90;99.90;;;;;;5051836;28;20317;-51
2021/05/25 11:31:42;;;;;;;3.60;1.17;;;15.00;99.90;;;;;;5050795;28;20273;-51
2021/05/25 11:34:09;;;;;;;2.60;0.83;;;14.70;99.90;;;;;;5046794;28;20240;-51
2021/05/25 11:36:36;;;;;;;0.93;0.50;;;14.60;99.90;;;;;;5052659;28;20209;-51
2021/05/25 11:39:06;;;;;;;0.80;0.40;;;14.00;99.90;;;;;;5048129;28;20221;-51
2021/05/25 11:41:33;;;;;;;1.50;0.40;;;13.40;99.90;;;;;;5052901;28;20197;-51
2021/05/25 11:44:09;;;;;;;1.07;0.57;;;13.20;99.90;;;;;;5054236;28;20300;-51
2021/05/25 11:46:45;;;;;;;1.53;0.60;;;13.20;99.90;;;;;;5050180;28;20668;-51
2021/05/25 11:49:13;;;;;;;1.60;0.50;;;13.20;99.90;;;;;;5049977;28;20203;-51
2021/05/25 11:51:41;;;;;;;1.53;0.50;;;13.20;99.90;;;;;;5053827;28;20323;-51
2021/05/25 11:54:16;;;;;;;2.10;0.60;;;13.40;99.90;;;;;;5049333;28;20220;-51
2021/05/25 11:56:46;;;;;;;1.43;0.90;;;13.40;99.90;;;;;;5051188;28;20251;-51
2021/05/25 11:59:14;;;;;;;1.97;0.50;;;13.60;99.90;;;;;;5055626;28;20200;-52
2021/05/25 12:01:52;;;;;;;1.80;0.67;;;13.60;99.90;;;;;;5048913;28;20236;-52
2021/05/25 12:04:21;;;;;;;1.33;0.53;;;13.50;99.90;;;;;;5050796;28;20236;-51
2021/05/25 12:06:53;;;;;;;2.60;0.60;;;13.50;99.90;;;;;;5053200;28;20682;-52
2021/05/25 12:09:29;;;;;;;2.17;0.70;;;13.60;99.90;;;;;;5047258;28;20208;-53
2021/05/25 12:11:58;;;;;;;3.17;0.80;;;14.10;99.90;;;;;;5049719;28;20238;-53
2021/05/25 12:14:32;;;;;;;2.67;0.97;;;14.60;99.90;;;;;;5050589;28;20215;-52
2021/05/25 12:17:00;;;;;;;2.07;0.80;;;14.70;99.90;;;;;;5049743;28;20271;-52
2021/05/25 12:19:28;;;;;;;2.77;1.20;;;14.60;99.90;;;;;;5047364;28;20285;-52
2021/05/25 12:22:02;;;;;;;4.37;0.80;;;14.50;99.90;;;;;;5048502;28;20328;-52
2021/05/25 12:24:30;;;;;;;2.83;0.80;;;14.20;99.90;;;;;;5046643;28;20198;-52
2021/05/25 12:26:58;;;;;;;4.00;0.80;;;14.00;99.90;;;;;;5051049;28;20318;-52
2021/05/25 12:29:26;;;;;;;2.60;0.93;;;13.80;99.90;;;;;;5052417;28;20577;-52
2021/05/25 12:31:54;;;;;;;5.30;1.17;;;13.80;99.90;;;;;;5046826;28;20196;-52
2021/05/25 12:34:22;;;;;;;5.73;1.37;;;14.00;99.90;;;;;;5048774;28;20253;-52
2021/05/25 12:36:59;;;;;;;1.90;0.90;;;13.80;99.90;;;;;;5051957;28;20280;-53
2021/05/25 12:39:37;;;;;;;1.43;0.60;;;13.70;99.90;;;;;;5048675;28;20254;-52
2021/05/25 12:42:18;;;;;;;2.70;0.90;;;13.80;99.90;;;;;;5051101;28;20315;-53
2021/05/25 12:44:45;;;;;;;1.60;0.73;;;13.80;99.90;;;;;;5048970;28;20331;-53
2021/05/25 12:47:14;;;;;;;2.33;0.93;;;13.70;99.90;;;;;;5050846;28;20244;-53
2021/05/25 12:49:51;;;;;;;1.37;0.87;;;13.80;99.90;;;;;;5048640;28;20201;-52
2021/05/25 12:52:26;;;;;;;3.37;0.90;;;13.70;99.90;;;;;;5048868;28;20201;-51
2021/05/25 12:54:53;;;;;;;1.40;0.90;;;13.70;99.90;;;;;;5049267;28;20238;-52
2021/05/25 12:57:21;;;;;;;1.80;0.70;;;14.20;99.90;;;;;;5049792;28;20227;-51
2021/05/25 13:00:02;;;;;;;2.53;0.70;;;14.60;99.90;;;;;;5049415;28;20227;-52
2021/05/25 13:02:49;;;;;;;1.67;0.60;;;14.60;99.90;;;;;;5048342;28;20271;-52
2021/05/25 13:05:24;;;;;;;4.47;0.83;;;14.30;99.90;;;;;;5050952;28;20209;-53
2021/05/25 13:08:06;;;;;;;1.87;0.80;;;14.10;99.90;;;;;;5047270;28;20212;-52
2021/05/25 13:13:17;;;;;;;2.63;1.47;;;13.80;99.90;;;;;;5050306;28;20603;-52
2021/05/25 13:15:49;;;;;;;3.23;0.83;;;13.50;99.90;;;;;;5050027;28;20288;-52
2021/05/25 13:18:21;;;;;;;1.97;0.87;;;13.30;99.90;;;;;;5046110;28;20208;-52